sensor_id;sensor_type;location;lat;lon;timestamp;pressure;altitude;pressure_sealevel;temperature;humidity
44138;BME280;29800;55.942;37.314;2022-08-14T00:01:08;99980.19;;;20.78;63.27
44138;BME280;29800;55.942;37.314;2022-08-14T00:03:34;99982.41;;;20.90;63.33
44138;BME280;29800;55.942;37.314;2022-08-14T00:06:01;99982.84;;;20.83;63.00
44138;BME280;29800;55.942;37.314;2022-08-14T00:08:28;99982.66;;;20.52;62.39
44138;BME280;29800;55.942;37.314;2022-08-14T00:10:55;99979.56;;;20.67;63.52
44138;BME280;29800;55.942;37.314;2022-08-14T00:13:24;99977.81;;;20.71;63.58
44138;BME280;29800;55.942;37.314;2022-08-14T00:15:55;99980.38;;;20.54;62.53
44138;BME280;29800;55.942;37.314;2022-08-14T00:18:23;99982.66;;;20.66;63.39
44138;BME280;29800;55.942;37.314;2022-08-14T00:20:50;99978.34;;;20.46;62.80
44138;BME280;29800;55.942;37.314;2022-08-14T00:23:17;99984.94;;;20.50;63.49
44138;BME280;29800;55.942;37.314;2022-08-14T00:25:52;99984.72;;;20.60;63.87
44138;BME280;29800;55.942;37.314;2022-08-14T00:28:19;99982.34;;;20.39;62.39
44138;BME280;29800;55.942;37.314;2022-08-14T00:30:52;99978.34;;;20.60;63.64
44138;BME280;29800;55.942;37.314;2022-08-14T00:33:19;99973.41;;;20.43;62.58
44138;BME280;29800;55.942;37.314;2022-08-14T00:35:45;99977.00;;;20.57;63.51
44138;BME280;29800;55.942;37.314;2022-08-14T00:38:11;99979.16;;;20.60;63.48
44138;BME280;29800;55.942;37.314;2022-08-14T00:40:37;99973.72;;;20.41;63.03
44138;BME280;29800;55.942;37.314;2022-08-14T00:43:03;99983.41;;;20.44;63.58
44138;BME280;29800;55.942;37.314;2022-08-14T00:45:30;99977.94;;;20.25;62.55
44138;BME280;29800;55.942;37.314;2022-08-14T00:47:56;99978.97;;;20.29;63.68
44138;BME280;29800;55.942;37.314;2022-08-14T00:50:23;99980.41;;;20.26;64.03
44138;BME280;29800;55.942;37.314;2022-08-14T00:52:51;99980.41;;;20.40;64.41
44138;BME280;29800;55.942;37.314;2022-08-14T00:55:19;99972.56;;;20.28;63.85
44138;BME280;29800;55.942;37.314;2022-08-14T00:57:47;99974.03;;;20.12;62.61
44138;BME280;29800;55.942;37.314;2022-08-14T01:00:37;99978.16;;;20.14;63.07
44138;BME280;29800;55.942;37.314;2022-08-14T01:03:05;99977.84;;;20.16;63.44
44138;BME280;29800;55.942;37.314;2022-08-14T01:05:32;99970.94;;;19.99;62.88
44138;BME280;29800;55.942;37.314;2022-08-14T01:08:00;99977.13;;;20.24;64.25
44138;BME280;29800;55.942;37.314;2022-08-14T01:10:30;99975.88;;;20.30;64.41
44138;BME280;29800;55.942;37.314;2022-08-14T01:13:20;99972.19;;;20.07;63.05
44138;BME280;29800;55.942;37.314;2022-08-14T01:15:54;99977.53;;;20.17;63.92
44138;BME280;29800;55.942;37.314;2022-08-14T01:18:22;99975.34;;;20.28;64.22
44138;BME280;29800;55.942;37.314;2022-08-14T01:21:08;99978.66;;;20.02;63.14
44138;BME280;29800;55.942;37.314;2022-08-14T01:23:42;99987.00;;;20.16;64.53
44138;BME280;29800;55.942;37.314;2022-08-14T01:26:09;99991.22;;;20.14;64.32
44138;BME280;29800;55.942;37.314;2022-08-14T01:28:38;99986.25;;;19.83;63.41
44138;BME280;29800;55.942;37.314;2022-08-14T01:31:13;99985.34;;;19.88;64.95
44138;BME280;29800;55.942;37.314;2022-08-14T01:33:42;99986.84;;;19.80;64.48
44138;BME280;29800;55.942;37.314;2022-08-14T01:36:11;99982.88;;;19.86;64.95
44138;BME280;29800;55.942;37.314;2022-08-14T01:38:40;99986.56;;;19.95;65.17
44138;BME280;29800;55.942;37.314;2022-08-14T01:41:10;99983.97;;;19.85;64.54
44138;BME280;29800;55.942;37.314;2022-08-14T01:55:44;99984.53;;;20.15;62.61
44138;BME280;29800;55.942;37.314;2022-08-14T01:58:10;99986.38;;;20.06;62.46
44138;BME280;29800;55.942;37.314;2022-08-14T02:00:40;99984.94;;;20.22;63.24
44138;BME280;29800;55.942;37.314;2022-08-14T02:03:06;99997.09;;;20.26;63.35
44138;BME280;29800;55.942;37.314;2022-08-14T02:05:33;99993.19;;;20.27;63.32
44138;BME280;29800;55.942;37.314;2022-08-14T02:07:59;99987.41;;;20.10;63.01
44138;BME280;29800;55.942;37.314;2022-08-14T02:10:25;99988.16;;;20.15;63.43
44138;BME280;29800;55.942;37.314;2022-08-14T02:12:55;99988.56;;;20.09;63.24
44138;BME280;29800;55.942;37.314;2022-08-14T02:15:23;99993.97;;;19.86;63.36
44138;BME280;29800;55.942;37.314;2022-08-14T02:17:49;99986.56;;;19.95;63.56
44138;BME280;29800;55.942;37.314;2022-08-14T02:20:15;99993.25;;;19.94;63.69
44138;BME280;29800;55.942;37.314;2022-08-14T02:22:43;99998.88;;;19.75;63.45
44138;BME280;29800;55.942;37.314;2022-08-14T02:25:09;99993.97;;;19.86;64.26
44138;BME280;29800;55.942;37.314;2022-08-14T02:27:35;99999.53;;;19.86;64.12
44138;BME280;29800;55.942;37.314;2022-08-14T02:30:03;99999.25;;;19.69;64.05
44138;BME280;29800;55.942;37.314;2022-08-14T02:32:31;99994.91;;;19.62;64.26
44138;BME280;29800;55.942;37.314;2022-08-14T02:34:59;99998.81;;;19.61;64.73
44138;BME280;29800;55.942;37.314;2022-08-14T02:37:26;100001.72;;;19.70;65.06
44138;BME280;29800;55.942;37.314;2022-08-14T02:39:52;100006.09;;;19.57;64.82
44138;BME280;29800;55.942;37.314;2022-08-14T02:42:18;100008.63;;;19.73;65.29
44138;BME280;29800;55.942;37.314;2022-08-14T02:44:46;99999.38;;;19.77;65.19
44138;BME280;29800;55.942;37.314;2022-08-14T02:47:13;100011.72;;;19.71;64.89
44138;BME280;29800;55.942;37.314;2022-08-14T02:49:40;100010.84;;;19.76;64.85
44138;BME280;29800;55.942;37.314;2022-08-14T02:52:06;100006.16;;;19.71;64.72
44138;BME280;29800;55.942;37.314;2022-08-14T02:54:34;100003.13;;;19.68;64.62
44138;BME280;29800;55.942;37.314;2022-08-14T02:57:02;100008.09;;;19.71;64.80
44138;BME280;29800;55.942;37.314;2022-08-14T02:59:34;100012.16;;;19.59;64.91
44138;BME280;29800;55.942;37.314;2022-08-14T03:02:02;100006.47;;;19.70;64.99
44138;BME280;29800;55.942;37.314;2022-08-14T03:04:29;100010.22;;;19.60;65.28
44138;BME280;29800;55.942;37.314;2022-08-14T03:06:56;100013.63;;;19.71;65.19
44138;BME280;29800;55.942;37.314;2022-08-14T03:09:22;100022.34;;;19.50;65.23
44138;BME280;29800;55.942;37.314;2022-08-14T03:11:48;100014.69;;;19.42;65.56
44138;BME280;29800;55.942;37.314;2022-08-14T03:14:15;100019.34;;;19.46;65.61
44138;BME280;29800;55.942;37.314;2022-08-14T03:16:42;100014.44;;;19.57;65.65
44138;BME280;29800;55.942;37.314;2022-08-14T03:19:10;100017.66;;;19.64;65.54
44138;BME280;29800;55.942;37.314;2022-08-14T03:21:36;100014.41;;;19.76;65.29
44138;BME280;29800;55.942;37.314;2022-08-14T03:24:05;100022.34;;;19.83;65.34
44138;BME280;29800;55.942;37.314;2022-08-14T03:26:34;100012.50;;;19.91;64.97
44138;BME280;29800;55.942;37.314;2022-08-14T03:29:00;100009.03;;;19.99;64.69
44138;BME280;29800;55.942;37.314;2022-08-14T03:31:27;100011.69;;;20.04;64.83
44138;BME280;29800;55.942;37.314;2022-08-14T03:33:54;100016.22;;;20.14;64.55
44138;BME280;29800;55.942;37.314;2022-08-14T03:36:21;100013.34;;;20.19;64.31
44138;BME280;29800;55.942;37.314;2022-08-14T03:38:49;100013.75;;;20.26;63.99
44138;BME280;29800;55.942;37.314;2022-08-14T03:41:24;100012.03;;;20.30;64.16
44138;BME280;29800;55.942;37.314;2022-08-14T03:43:54;100011.69;;;20.18;65.16
44138;BME280;29800;55.942;37.314;2022-08-14T03:46:21;100013.13;;;20.29;64.78
44138;BME280;29800;55.942;37.314;2022-08-14T03:48:48;100011.59;;;20.37;64.60
44138;BME280;29800;55.942;37.314;2022-08-14T03:51:14;100013.03;;;20.34;64.78
44138;BME280;29800;55.942;37.314;2022-08-14T03:53:43;100016.25;;;20.42;64.70
44138;BME280;29800;55.942;37.314;2022-08-14T03:56:11;100009.13;;;20.49;64.50
44138;BME280;29800;55.942;37.314;2022-08-14T03:58:41;100004.91;;;20.52;64.63
44138;BME280;29800;55.942;37.314;2022-08-14T04:01:11;100010.34;;;20.71;64.35
44138;BME280;29800;55.942;37.314;2022-08-14T04:03:37;100010.53;;;20.88;64.04
44138;BME280;29800;55.942;37.314;2022-08-14T04:06:04;99999.88;;;21.04;63.76
44138;BME280;29800;55.942;37.314;2022-08-14T04:08:37;99999.00;;;21.18;63.25
44138;BME280;29800;55.942;37.314;2022-08-14T04:11:05;100007.47;;;21.13;63.27
44138;BME280;29800;55.942;37.314;2022-08-14T04:13:33;100002.28;;;21.20;63.09
44138;BME280;29800;55.942;37.314;2022-08-14T04:16:02;100003.16;;;21.06;64.08
44138;BME280;29800;55.942;37.314;2022-08-14T04:18:28;100001.13;;;20.98;64.11
44138;BME280;29800;55.942;37.314;2022-08-14T04:20:55;100011.69;;;20.87;64.74
44138;BME280;29800;55.942;37.314;2022-08-14T04:23:24;100006.53;;;20.81;65.47
44138;BME280;29800;55.942;37.314;2022-08-14T04:25:50;100009.09;;;20.77;64.64
44138;BME280;29800;55.942;37.314;2022-08-14T04:28:20;100005.50;;;20.77;65.81
44138;BME280;29800;55.942;37.314;2022-08-14T04:30:46;100007.19;;;20.78;63.50
44138;BME280;29800;55.942;37.314;2022-08-14T04:33:13;100008.56;;;20.89;63.57
44138;BME280;29800;55.942;37.314;2022-08-14T04:35:41;100010.50;;;21.02;63.57
44138;BME280;29800;55.942;37.314;2022-08-14T04:38:08;100016.34;;;21.15;63.39
44138;BME280;29800;55.942;37.314;2022-08-14T04:40:53;100017.56;;;21.22;62.98
44138;BME280;29800;55.942;37.314;2022-08-14T04:43:38;100012.47;;;21.24;63.33
44138;BME280;29800;55.942;37.314;2022-08-14T04:46:13;100016.81;;;21.30;64.09
44138;BME280;29800;55.942;37.314;2022-08-14T04:48:39;100004.63;;;21.26;62.88
44138;BME280;29800;55.942;37.314;2022-08-14T04:51:09;100005.16;;;21.28;62.75
44138;BME280;29800;55.942;37.314;2022-08-14T04:53:37;100006.97;;;21.33;63.38
44138;BME280;29800;55.942;37.314;2022-08-14T04:56:08;100009.66;;;21.38;64.64
44138;BME280;29800;55.942;37.314;2022-08-14T04:58:35;100005.28;;;21.46;63.50
44138;BME280;29800;55.942;37.314;2022-08-14T05:01:04;100008.66;;;21.57;62.95
44138;BME280;29800;55.942;37.314;2022-08-14T05:03:33;100015.94;;;21.66;62.46
44138;BME280;29800;55.942;37.314;2022-08-14T05:06:05;100005.78;;;21.71;61.29
44138;BME280;29800;55.942;37.314;2022-08-14T05:08:32;100004.25;;;21.87;61.56
44138;BME280;29800;55.942;37.314;2022-08-14T05:11:01;99998.28;;;22.02;61.26
44138;BME280;29800;55.942;37.314;2022-08-14T05:13:29;100006.16;;;22.09;60.95
44138;BME280;29800;55.942;37.314;2022-08-14T05:15:57;99998.84;;;22.22;60.47
44138;BME280;29800;55.942;37.314;2022-08-14T05:18:30;99999.22;;;22.29;60.04
44138;BME280;29800;55.942;37.314;2022-08-14T05:21:02;99994.31;;;22.35;60.73
44138;BME280;29800;55.942;37.314;2022-08-14T05:23:29;99995.16;;;22.44;60.88
44138;BME280;29800;55.942;37.314;2022-08-14T05:25:58;99997.97;;;22.53;60.27
44138;BME280;29800;55.942;37.314;2022-08-14T05:28:33;99994.91;;;22.63;59.93
44138;BME280;29800;55.942;37.314;2022-08-14T05:31:04;99999.34;;;22.73;59.45
44138;BME280;29800;55.942;37.314;2022-08-14T05:33:35;99996.41;;;22.78;59.16
44138;BME280;29800;55.942;37.314;2022-08-14T05:36:05;100001.16;;;22.86;58.26
44138;BME280;29800;55.942;37.314;2022-08-14T05:38:38;100002.34;;;22.94;58.14
44138;BME280;29800;55.942;37.314;2022-08-14T05:41:13;99996.75;;;23.03;57.72
44138;BME280;29800;55.942;37.314;2022-08-14T05:43:40;99991.19;;;23.11;57.68
44138;BME280;29800;55.942;37.314;2022-08-14T05:46:12;99994.97;;;23.24;57.58
44138;BME280;29800;55.942;37.314;2022-08-14T05:48:38;99985.94;;;23.36;56.94
44138;BME280;29800;55.942;37.314;2022-08-14T05:51:05;99986.75;;;23.45;57.00
44138;BME280;29800;55.942;37.314;2022-08-14T05:53:31;99991.97;;;23.56;56.56
44138;BME280;29800;55.942;37.314;2022-08-14T05:55:57;99989.66;;;23.66;56.19
44138;BME280;29800;55.942;37.314;2022-08-14T05:58:24;99992.75;;;23.74;56.34
44138;BME280;29800;55.942;37.314;2022-08-14T06:00:51;99983.88;;;23.80;56.05
44138;BME280;29800;55.942;37.314;2022-08-14T06:03:19;99982.72;;;23.90;55.35
44138;BME280;29800;55.942;37.314;2022-08-14T06:05:50;99984.00;;;24.01;54.83
44138;BME280;29800;55.942;37.314;2022-08-14T06:08:20;99980.53;;;24.04;55.61
44138;BME280;29800;55.942;37.314;2022-08-14T06:10:48;99985.47;;;24.08;54.29
44138;BME280;29800;55.942;37.314;2022-08-14T06:13:14;99972.94;;;24.14;53.98
44138;BME280;29800;55.942;37.314;2022-08-14T06:15:42;99978.81;;;24.21;53.76
44138;BME280;29800;55.942;37.314;2022-08-14T06:18:08;99980.41;;;24.31;53.92
44138;BME280;29800;55.942;37.314;2022-08-14T06:20:36;99977.09;;;24.37;53.64
44138;BME280;29800;55.942;37.314;2022-08-14T06:23:03;99968.81;;;24.50;53.11
44138;BME280;29800;55.942;37.314;2022-08-14T06:25:30;99976.97;;;24.64;53.02
44138;BME280;29800;55.942;37.314;2022-08-14T06:27:57;99978.06;;;24.71;50.47
44138;BME280;29800;55.942;37.314;2022-08-14T06:30:26;99976.22;;;24.75;51.44
44138;BME280;29800;55.942;37.314;2022-08-14T06:32:53;99972.19;;;24.85;50.41
44138;BME280;29800;55.942;37.314;2022-08-14T06:35:20;99972.63;;;24.96;49.72
44138;BME280;29800;55.942;37.314;2022-08-14T06:37:58;99971.53;;;25.09;49.48
44138;BME280;29800;55.942;37.314;2022-08-14T06:40:30;99973.41;;;25.18;50.39
44138;BME280;29800;55.942;37.314;2022-08-14T06:42:59;99977.00;;;25.27;50.25
44138;BME280;29800;55.942;37.314;2022-08-14T06:45:25;99968.03;;;25.34;49.55
44138;BME280;29800;55.942;37.314;2022-08-14T06:47:51;99962.56;;;25.37;49.88
44138;BME280;29800;55.942;37.314;2022-08-14T06:50:20;99970.06;;;25.45;49.50
44138;BME280;29800;55.942;37.314;2022-08-14T06:52:47;99967.50;;;25.53;48.83
44138;BME280;29800;55.942;37.314;2022-08-14T06:55:15;99969.28;;;25.57;48.87
44138;BME280;29800;55.942;37.314;2022-08-14T06:57:47;99974.59;;;25.71;47.85
44138;BME280;29800;55.942;37.314;2022-08-14T07:02:41;99970.19;;;25.95;45.73
44138;BME280;29800;55.942;37.314;2022-08-14T07:05:26;99971.28;;;26.02;45.88
44138;BME280;29800;55.942;37.314;2022-08-14T07:08:21;99970.00;;;26.12;45.29
44138;BME280;29800;55.942;37.314;2022-08-14T07:10:50;99965.78;;;26.18;46.66
44138;BME280;29800;55.942;37.314;2022-08-14T07:13:20;99963.78;;;26.31;43.80
44138;BME280;29800;55.942;37.314;2022-08-14T07:15:51;99964.16;;;26.42;44.39
44138;BME280;29800;55.942;37.314;2022-08-14T07:18:20;99960.66;;;26.45;44.81
44138;BME280;29800;55.942;37.314;2022-08-14T07:20:46;99957.34;;;26.55;42.04
44138;BME280;29800;55.942;37.314;2022-08-14T07:23:12;99956.53;;;26.67;41.11
44138;BME280;29800;55.942;37.314;2022-08-14T07:25:40;99961.09;;;26.72;43.81
44138;BME280;29800;55.942;37.314;2022-08-14T07:28:11;99967.16;;;26.86;43.05
44138;BME280;29800;55.942;37.314;2022-08-14T07:30:37;99964.56;;;26.93;40.28
44138;BME280;29800;55.942;37.314;2022-08-14T07:33:04;99963.59;;;27.02;40.25
44138;BME280;29800;55.942;37.314;2022-08-14T07:35:33;99965.88;;;27.12;42.43
44138;BME280;29800;55.942;37.314;2022-08-14T07:37:59;99965.16;;;27.27;41.47
44138;BME280;29800;55.942;37.314;2022-08-14T07:40:26;99962.56;;;27.35;43.05
44138;BME280;29800;55.942;37.314;2022-08-14T07:42:52;99960.88;;;27.46;41.80
44138;BME280;29800;55.942;37.314;2022-08-14T07:45:19;99958.38;;;27.57;40.33
44138;BME280;29800;55.942;37.314;2022-08-14T07:47:45;99949.00;;;27.53;42.32
44138;BME280;29800;55.942;37.314;2022-08-14T07:50:17;99957.25;;;27.61;40.71
44138;BME280;29800;55.942;37.314;2022-08-14T07:52:45;99955.00;;;27.67;40.56
44138;BME280;29800;55.942;37.314;2022-08-14T07:55:13;99962.38;;;27.72;39.76
44138;BME280;29800;55.942;37.314;2022-08-14T07:57:41;99964.81;;;27.73;41.25
44138;BME280;29800;55.942;37.314;2022-08-14T08:00:11;99961.28;;;27.92;38.67
44138;BME280;29800;55.942;37.314;2022-08-14T08:02:40;99947.19;;;28.04;37.01
44138;BME280;29800;55.942;37.314;2022-08-14T08:05:07;99962.59;;;28.11;40.04
44138;BME280;29800;55.942;37.314;2022-08-14T08:07:34;99958.22;;;28.13;40.74
44138;BME280;29800;55.942;37.314;2022-08-14T08:10:09;99958.94;;;28.26;38.10
44138;BME280;29800;55.942;37.314;2022-08-14T08:12:55;99959.13;;;28.33;40.78
44138;BME280;29800;55.942;37.314;2022-08-14T08:15:25;99953.69;;;28.40;41.08
44138;BME280;29800;55.942;37.314;2022-08-14T08:17:53;99956.19;;;28.46;37.14
44138;BME280;29800;55.942;37.314;2022-08-14T08:20:23;99955.56;;;28.52;40.21
44138;BME280;29800;55.942;37.314;2022-08-14T08:22:52;99955.75;;;28.59;40.05
44138;BME280;29800;55.942;37.314;2022-08-14T08:25:24;99956.81;;;28.71;38.87
44138;BME280;29800;55.942;37.314;2022-08-14T08:30:38;99960.84;;;28.89;35.79
44138;BME280;29800;55.942;37.314;2022-08-14T08:33:05;99956.53;;;28.95;36.65
44138;BME280;29800;55.942;37.314;2022-08-14T08:35:34;99955.06;;;29.02;35.44
44138;BME280;29800;55.942;37.314;2022-08-14T08:38:04;99951.00;;;29.19;34.86
44138;BME280;29800;55.942;37.314;2022-08-14T08:40:37;99947.59;;;29.29;35.86
44138;BME280;29800;55.942;37.314;2022-08-14T08:43:05;99957.53;;;29.23;37.89
44138;BME280;29800;55.942;37.314;2022-08-14T08:45:35;99950.44;;;29.29;38.04
44138;BME280;29800;55.942;37.314;2022-08-14T08:48:03;99955.16;;;29.44;33.63
44138;BME280;29800;55.942;37.314;2022-08-14T08:50:34;99945.00;;;29.63;32.85
44138;BME280;29800;55.942;37.314;2022-08-14T08:53:10;99942.03;;;29.75;32.08
44138;BME280;29800;55.942;37.314;2022-08-14T08:55:38;99938.16;;;29.83;31.60
44138;BME280;29800;55.942;37.314;2022-08-14T08:58:07;99939.88;;;29.88;34.04
44138;BME280;29800;55.942;37.314;2022-08-14T09:00:35;99937.75;;;29.81;33.82
44138;BME280;29800;55.942;37.314;2022-08-14T09:03:13;99940.25;;;29.86;34.25
44138;BME280;29800;55.942;37.314;2022-08-14T09:05:59;99942.84;;;29.99;33.47
44138;BME280;29800;55.942;37.314;2022-08-14T09:08:32;99939.81;;;29.84;34.91
44138;BME280;29800;55.942;37.314;2022-08-14T09:11:08;99946.94;;;30.01;32.88
44138;BME280;29800;55.942;37.314;2022-08-14T09:13:37;99935.72;;;30.05;33.43
44138;BME280;29800;55.942;37.314;2022-08-14T09:16:03;99940.78;;;30.19;30.99
44138;BME280;29800;55.942;37.314;2022-08-14T09:18:29;99927.16;;;30.24;30.68
44138;BME280;29800;55.942;37.314;2022-08-14T09:20:56;99934.13;;;30.31;30.79
44138;BME280;29800;55.942;37.314;2022-08-14T09:23:22;99927.72;;;30.34;31.80
44138;BME280;29800;55.942;37.314;2022-08-14T09:25:50;99932.91;;;30.32;31.57
44138;BME280;29800;55.942;37.314;2022-08-14T09:28:18;99934.88;;;30.28;31.38
44138;BME280;29800;55.942;37.314;2022-08-14T09:30:48;99927.91;;;30.21;32.94
44138;BME280;29800;55.942;37.314;2022-08-14T09:36:36;99932.41;;;30.26;32.82
44138;BME280;29800;55.942;37.314;2022-08-14T09:44:43;99926.03;;;30.56;32.32
44138;BME280;29800;55.942;37.314;2022-08-14T09:47:12;99919.41;;;30.45;31.37
44138;BME280;29800;55.942;37.314;2022-08-14T09:49:41;99926.06;;;30.33;32.09
44138;BME280;29800;55.942;37.314;2022-08-14T09:52:13;99923.56;;;30.28;31.24
44138;BME280;29800;55.942;37.314;2022-08-14T09:54:45;99933.88;;;30.16;31.97
44138;BME280;29800;55.942;37.314;2022-08-14T09:57:27;99934.53;;;30.06;32.09
44138;BME280;29800;55.942;37.314;2022-08-14T09:59:55;99925.38;;;29.90;33.19
44138;BME280;29800;55.942;37.314;2022-08-14T10:02:26;99921.84;;;29.73;33.15
44138;BME280;29800;55.942;37.314;2022-08-14T10:05:04;99927.34;;;29.66;34.65
44138;BME280;29800;55.942;37.314;2022-08-14T10:07:36;99924.66;;;29.50;34.40
44138;BME280;29800;55.942;37.314;2022-08-14T10:10:04;99923.94;;;29.33;34.85
44138;BME280;29800;55.942;37.314;2022-08-14T10:12:43;99929.06;;;29.28;35.74
44138;BME280;29800;55.942;37.314;2022-08-14T10:15:15;99925.63;;;29.19;36.43
44138;BME280;29800;55.942;37.314;2022-08-14T10:17:41;99926.16;;;29.05;35.74
44138;BME280;29800;55.942;37.314;2022-08-14T10:20:08;99927.78;;;29.06;34.03
44138;BME280;29800;55.942;37.314;2022-08-14T10:22:38;99920.59;;;29.08;33.76
44138;BME280;29800;55.942;37.314;2022-08-14T10:25:11;99927.41;;;29.27;34.85
44138;BME280;29800;55.942;37.314;2022-08-14T10:27:39;99925.25;;;29.40;35.38
44138;BME280;29800;55.942;37.314;2022-08-14T10:30:14;99927.75;;;29.45;34.99
44138;BME280;29800;55.942;37.314;2022-08-14T10:32:47;99920.72;;;29.35;35.32
44138;BME280;29800;55.942;37.314;2022-08-14T10:35:14;99934.69;;;29.28;35.35
44138;BME280;29800;55.942;37.314;2022-08-14T10:37:46;99925.81;;;29.26;32.50
44138;BME280;29800;55.942;37.314;2022-08-14T10:40:35;99916.22;;;29.11;36.05
44138;BME280;29800;55.942;37.314;2022-08-14T10:43:00;99917.63;;;29.01;35.50
44138;BME280;29800;55.942;37.314;2022-08-14T10:45:32;99918.06;;;29.03;36.49
44138;BME280;29800;55.942;37.314;2022-08-14T10:47:59;99916.72;;;29.17;34.25
44138;BME280;29800;55.942;37.314;2022-08-14T10:50:34;99916.97;;;29.27;32.81
44138;BME280;29800;55.942;37.314;2022-08-14T10:53:01;99911.72;;;29.26;33.51
44138;BME280;29800;55.942;37.314;2022-08-14T10:55:36;99917.03;;;29.31;33.55
44138;BME280;29800;55.942;37.314;2022-08-14T10:58:08;99910.13;;;29.28;34.12
44138;BME280;29800;55.942;37.314;2022-08-14T11:00:55;99919.78;;;29.27;33.54
44138;BME280;29800;55.942;37.314;2022-08-14T11:03:22;99917.84;;;29.12;35.73
44138;BME280;29800;55.942;37.314;2022-08-14T11:05:51;99922.06;;;29.02;34.81
44138;BME280;29800;55.942;37.314;2022-08-14T11:08:28;99912.75;;;28.98;34.10
44138;BME280;29800;55.942;37.314;2022-08-14T11:10:59;99922.66;;;28.92;36.32
44138;BME280;29800;55.942;37.314;2022-08-14T11:13:31;99907.25;;;28.86;33.80
44138;BME280;29800;55.942;37.314;2022-08-14T11:15:59;99915.53;;;28.78;34.30
44138;BME280;29800;55.942;37.314;2022-08-14T11:18:27;99910.13;;;28.70;35.94
44138;BME280;29800;55.942;37.314;2022-08-14T11:20:57;99914.06;;;28.65;36.26
44138;BME280;29800;55.942;37.314;2022-08-14T11:23:32;99911.97;;;28.62;36.41
44138;BME280;29800;55.942;37.314;2022-08-14T11:26:00;99905.69;;;28.53;37.04
44138;BME280;29800;55.942;37.314;2022-08-14T11:28:34;99906.28;;;28.58;36.09
44138;BME280;29800;55.942;37.314;2022-08-14T11:31:04;99911.06;;;28.58;36.03
44138;BME280;29800;55.942;37.314;2022-08-14T11:33:30;99908.63;;;28.56;36.94
44138;BME280;29800;55.942;37.314;2022-08-14T11:36:01;99908.97;;;28.55;38.00
44138;BME280;29800;55.942;37.314;2022-08-14T11:41:03;99906.41;;;28.66;34.73
44138;BME280;29800;55.942;37.314;2022-08-14T11:43:30;99906.03;;;28.67;36.80
44138;BME280;29800;55.942;37.314;2022-08-14T11:45:59;99898.66;;;28.78;37.07
44138;BME280;29800;55.942;37.314;2022-08-14T11:48:26;99906.78;;;28.84;35.45
44138;BME280;29800;55.942;37.314;2022-08-14T11:50:53;99891.25;;;28.90;35.84
44138;BME280;29800;55.942;37.314;2022-08-14T11:53:29;99897.00;;;28.97;34.83
44138;BME280;29800;55.942;37.314;2022-08-14T11:56:00;99893.16;;;29.05;35.94
44138;BME280;29800;55.942;37.314;2022-08-14T11:58:29;99886.19;;;29.19;34.16
44138;BME280;29800;55.942;37.314;2022-08-14T12:00:58;99888.88;;;29.31;33.76
44138;BME280;29800;55.942;37.314;2022-08-14T12:03:41;99890.44;;;29.51;34.40
44138;BME280;29800;55.942;37.314;2022-08-14T12:06:11;99886.88;;;29.55;34.20
44138;BME280;29800;55.942;37.314;2022-08-14T12:08:38;99886.75;;;29.47;35.81
44138;BME280;29800;55.942;37.314;2022-08-14T12:11:06;99885.78;;;29.40;35.22
44138;BME280;29800;55.942;37.314;2022-08-14T12:13:33;99882.97;;;29.40;33.12
44138;BME280;29800;55.942;37.314;2022-08-14T12:16:08;99885.28;;;29.34;33.00
44138;BME280;29800;55.942;37.314;2022-08-14T12:18:42;99885.03;;;29.20;36.14
44138;BME280;29800;55.942;37.314;2022-08-14T12:23:36;99883.91;;;29.05;35.73
44138;BME280;29800;55.942;37.314;2022-08-14T12:26:04;99875.06;;;29.06;35.49
44138;BME280;29800;55.942;37.314;2022-08-14T12:28:30;99881.00;;;29.01;35.26
44138;BME280;29800;55.942;37.314;2022-08-14T12:30:57;99880.94;;;28.98;35.53
44138;BME280;29800;55.942;37.314;2022-08-14T12:33:26;99882.88;;;28.93;35.84
44138;BME280;29800;55.942;37.314;2022-08-14T12:35:56;99878.78;;;28.91;35.56
44138;BME280;29800;55.942;37.314;2022-08-14T12:38:42;99888.88;;;28.92;35.11
44138;BME280;29800;55.942;37.314;2022-08-14T12:41:10;99882.19;;;28.81;36.12
44138;BME280;29800;55.942;37.314;2022-08-14T12:43:54;99871.47;;;28.86;34.24
44138;BME280;29800;55.942;37.314;2022-08-14T12:46:28;99875.81;;;28.84;36.25
44138;BME280;29800;55.942;37.314;2022-08-14T12:49:07;99871.53;;;28.90;34.23
44138;BME280;29800;55.942;37.314;2022-08-14T12:51:34;99875.22;;;28.94;34.22
44138;BME280;29800;55.942;37.314;2022-08-14T12:54:11;99876.84;;;28.95;36.54
44138;BME280;29800;55.942;37.314;2022-08-14T12:56:39;99883.41;;;28.99;36.38
44138;BME280;29800;55.942;37.314;2022-08-14T12:59:05;99865.34;;;29.04;34.55
44138;BME280;29800;55.942;37.314;2022-08-14T13:01:34;99865.94;;;29.13;33.88
44138;BME280;29800;55.942;37.314;2022-08-14T13:06:38;99856.16;;;29.26;35.14
44138;BME280;29800;55.942;37.314;2022-08-14T13:09:05;99861.63;;;29.39;33.08
44138;BME280;29800;55.942;37.314;2022-08-14T13:11:46;99852.88;;;29.44;32.89
44138;BME280;29800;55.942;37.314;2022-08-14T13:14:21;99861.81;;;29.49;34.70
44138;BME280;29800;55.942;37.314;2022-08-14T13:16:53;99861.75;;;29.46;33.88
44138;BME280;29800;55.942;37.314;2022-08-14T13:19:20;99863.19;;;29.36;33.59
44138;BME280;29800;55.942;37.314;2022-08-14T13:21:48;99853.94;;;29.36;34.65
44138;BME280;29800;55.942;37.314;2022-08-14T13:24:18;99849.03;;;29.32;33.83
44138;BME280;29800;55.942;37.314;2022-08-14T13:26:46;99857.75;;;29.24;35.94
44138;BME280;29800;55.942;37.314;2022-08-14T13:29:23;99851.78;;;29.29;32.81
44138;BME280;29800;55.942;37.314;2022-08-14T13:31:52;99847.28;;;29.24;32.59
44138;BME280;29800;55.942;37.314;2022-08-14T13:34:21;99850.47;;;29.23;33.14